WUK1344 EGKK-LFLS
Flight info
| Callsign | WUK1344 |
|---|---|
| Flight time | 1h 14m |
| Altitude | 29000 |
| Route | BOGNA L612 BENBO UL612 OGULO DCT OKASI DCT OKEKO DCT OKEPI DCT MOU DCT OMANI A3 LESPI |
| Aircraft | A321/M-SDE3FGHIRWY/LB1 |
Departure
| Time | 2026-04-16 15:30 |
|---|---|
| Airport | London Gatwick Airport (EGKK) |
Arrival
| Time | 2026-04-16 16:44 |
|---|---|
| Airport | Grenoble Alpes Isère Airport (LFLS) |
| Time | Latitude | Longitude | Altitude | Speed | Heading |
|---|---|---|---|---|---|
| 2026-04-16 15:11 | 51.15489 | -0.16442 | 217 ft | 0 kts | 76° |
| 2026-04-16 15:21 | 51.15488 | -0.16446 | 205 ft | 3 kts | 76° |
| 2026-04-16 15:21 | 51.15482 | -0.16487 | 213 ft | 3 kts | 77° |
| 2026-04-16 15:21 | 51.15473 | -0.16519 | 215 ft | 4 kts | 22° |
| 2026-04-16 15:22 | 51.15449 | -0.16520 | 213 ft | 4 kts | 347° |
| 2026-04-16 15:22 | 51.15427 | -0.16518 | 208 ft | 4 kts | 43° |
| 2026-04-16 15:22 | 51.15415 | -0.16553 | 209 ft | 4 kts | 76° |
| 2026-04-16 15:22 | 51.15411 | -0.16581 | 207 ft | 1 kts | 77° |
| 2026-04-16 15:25 | 51.15411 | -0.16580 | 205 ft | 1 kts | 77° |
| 2026-04-16 15:25 | 51.15412 | -0.16542 | 209 ft | 7 kts | 99° |
| 2026-04-16 15:25 | 51.15381 | -0.16513 | 210 ft | 5 kts | 215° |
| 2026-04-16 15:25 | 51.15354 | -0.16614 | 208 ft | 14 kts | 257° |
| 2026-04-16 15:26 | 51.15308 | -0.16673 | 215 ft | 10 kts | 175° |
| 2026-04-16 15:26 | 51.15247 | -0.16655 | 205 ft | 0 kts | 168° |
| 2026-04-16 15:26 | 51.15245 | -0.16655 | 205 ft | 0 kts | 168° |
| 2026-04-16 15:28 | 51.15231 | -0.16650 | 211 ft | 6 kts | 168° |
| 2026-04-16 15:28 | 51.15153 | -0.16660 | 212 ft | 15 kts | 218° |
| 2026-04-16 15:29 | 51.15132 | -0.16747 | 205 ft | 0 kts | 257° |
| 2026-04-16 15:29 | 51.15129 | -0.16764 | 217 ft | 10 kts | 256° |
| 2026-04-16 15:29 | 51.15051 | -0.17310 | 210 ft | 89 kts | 257° |
| 2026-04-16 15:30 | 51.14871 | -0.18621 | 217 ft | 149 kts | 261° |
| 2026-04-16 15:30 | 51.14685 | -0.20222 | 857 ft | 149 kts | 255° |
| 2026-04-16 15:30 | 51.14464 | -0.21822 | 1726 ft | 148 kts | 252° |
| 2026-04-16 15:30 | 51.14232 | -0.23440 | 2270 ft | 157 kts | 254° |
| 2026-04-16 15:31 | 51.13969 | -0.25250 | 2581 ft | 179 kts | 255° |
| 2026-04-16 15:31 | 51.13674 | -0.27300 | 2870 ft | 201 kts | 255° |
| 2026-04-16 15:31 | 51.13354 | -0.29543 | 3521 ft | 211 kts | 256° |
| 2026-04-16 15:31 | 51.13033 | -0.31828 | 4397 ft | 213 kts | 255° |
| 2026-04-16 15:32 | 51.12710 | -0.34145 | 5205 ft | 217 kts | 256° |
| 2026-04-16 15:32 | 51.12382 | -0.36510 | 6056 ft | 219 kts | 255° |
| 2026-04-16 15:32 | 51.12043 | -0.38892 | 6869 ft | 221 kts | 252° |
| 2026-04-16 15:32 | 51.11268 | -0.40982 | 7617 ft | 224 kts | 222° |
| 2026-04-16 15:33 | 51.09841 | -0.42036 | 8325 ft | 235 kts | 189° |
| 2026-04-16 15:33 | 51.08177 | -0.41945 | 9111 ft | 241 kts | 179° |
| 2026-04-16 15:33 | 51.06463 | -0.41718 | 9641 ft | 258 kts | 179° |
| 2026-04-16 15:33 | 51.04626 | -0.41472 | 10043 ft | 276 kts | 179° |
| 2026-04-16 15:34 | 51.02684 | -0.41210 | 10678 ft | 283 kts | 179° |
| 2026-04-16 15:34 | 51.00712 | -0.40944 | 11444 ft | 286 kts | 179° |
| 2026-04-16 15:34 | 50.98720 | -0.40681 | 12201 ft | 289 kts | 179° |
| 2026-04-16 15:34 | 50.96712 | -0.40419 | 12968 ft | 291 kts | 179° |
| 2026-04-16 15:35 | 50.94677 | -0.40159 | 13729 ft | 294 kts | 179° |
| 2026-04-16 15:35 | 50.92628 | -0.39900 | 14437 ft | 298 kts | 180° |
| 2026-04-16 15:35 | 50.90553 | -0.39638 | 15095 ft | 301 kts | 180° |
| 2026-04-16 15:35 | 50.88448 | -0.39374 | 15764 ft | 304 kts | 180° |
| 2026-04-16 15:36 | 50.86323 | -0.39106 | 16392 ft | 308 kts | 180° |
| 2026-04-16 15:36 | 50.84172 | -0.38649 | 17027 ft | 317 kts | 171° |
| 2026-04-16 15:36 | 50.82074 | -0.37417 | 17650 ft | 328 kts | 157° |
| 2026-04-16 15:36 | 50.80115 | -0.35481 | 18263 ft | 335 kts | 151° |
| 2026-04-16 15:37 | 50.78162 | -0.33435 | 18824 ft | 339 kts | 152° |
| 2026-04-16 15:37 | 50.76214 | -0.31396 | 19357 ft | 342 kts | 152° |
| 2026-04-16 15:37 | 50.74213 | -0.29315 | 19902 ft | 345 kts | 152° |
| 2026-04-16 15:37 | 50.72195 | -0.27227 | 20437 ft | 349 kts | 152° |
| 2026-04-16 15:38 | 50.70154 | -0.25124 | 20962 ft | 352 kts | 152° |
| 2026-04-16 15:38 | 50.68067 | -0.22969 | 21175 ft | 367 kts | 152° |
| 2026-04-16 15:38 | 50.65886 | -0.20705 | 21311 ft | 384 kts | 152° |
| 2026-04-16 15:38 | 50.63611 | -0.18329 | 21417 ft | 400 kts | 151° |
| 2026-04-16 15:39 | 50.61247 | -0.15848 | 21538 ft | 416 kts | 151° |
| 2026-04-16 15:39 | 50.58793 | -0.13270 | 21674 ft | 430 kts | 151° |
| 2026-04-16 15:39 | 50.56268 | -0.10621 | 21805 ft | 442 kts | 150° |
| 2026-04-16 15:39 | 50.53673 | -0.07903 | 21941 ft | 454 kts | 150° |
| 2026-04-16 15:40 | 50.51012 | -0.05122 | 22060 ft | 464 kts | 150° |
| 2026-04-16 15:40 | 50.48291 | -0.02286 | 22221 ft | 474 kts | 150° |
| 2026-04-16 15:40 | 50.45524 | 0.00592 | 22491 ft | 480 kts | 150° |
| 2026-04-16 15:40 | 50.42724 | 0.03502 | 22862 ft | 483 kts | 150° |
| 2026-04-16 15:41 | 50.39911 | 0.06418 | 23218 ft | 487 kts | 150° |
| 2026-04-16 15:41 | 50.37072 | 0.09354 | 23596 ft | 490 kts | 150° |
| 2026-04-16 15:41 | 50.34221 | 0.12304 | 23954 ft | 493 kts | 150° |
| 2026-04-16 15:41 | 50.31349 | 0.15271 | 24288 ft | 496 kts | 150° |
| 2026-04-16 15:42 | 50.28475 | 0.18239 | 24737 ft | 494 kts | 151° |
| 2026-04-16 15:42 | 50.25605 | 0.21194 | 25221 ft | 493 kts | 151° |
| 2026-04-16 15:42 | 50.22744 | 0.24125 | 25713 ft | 491 kts | 151° |
| 2026-04-16 15:42 | 50.19891 | 0.27041 | 26194 ft | 490 kts | 152° |
| 2026-04-16 15:43 | 50.17039 | 0.29962 | 26660 ft | 489 kts | 151° |
| 2026-04-16 15:43 | 50.14199 | 0.32882 | 27160 ft | 488 kts | 152° |
| 2026-04-16 15:43 | 50.11368 | 0.35794 | 27652 ft | 487 kts | 152° |
| 2026-04-16 15:43 | 50.08545 | 0.38695 | 28161 ft | 485 kts | 152° |
| 2026-04-16 15:44 | 50.05770 | 0.41542 | 28653 ft | 484 kts | 152° |
| 2026-04-16 15:44 | 50.02960 | 0.44415 | 29094 ft | 483 kts | 152° |
| 2026-04-16 15:44 | 50.00145 | 0.47280 | 29218 ft | 486 kts | 152° |
| 2026-04-16 15:45 | 49.94456 | 0.53058 | 29230 ft | 489 kts | 152° |
| 2026-04-16 15:45 | 49.88762 | 0.58845 | 29235 ft | 489 kts | 152° |
| 2026-04-16 15:46 | 49.83238 | 0.65046 | 29228 ft | 493 kts | 145° |
| 2026-04-16 15:46 | 49.77918 | 0.71771 | 29226 ft | 493 kts | 146° |
| 2026-04-16 15:47 | 49.72626 | 0.78424 | 29213 ft | 493 kts | 146° |
| 2026-04-16 15:47 | 49.67299 | 0.85083 | 29217 ft | 493 kts | 146° |
| 2026-04-16 15:48 | 49.61965 | 0.91746 | 29217 ft | 493 kts | 145° |
| 2026-04-16 15:48 | 49.56623 | 0.98393 | 29208 ft | 493 kts | 145° |
| 2026-04-16 15:49 | 49.51277 | 1.05033 | 29187 ft | 493 kts | 145° |
| 2026-04-16 15:49 | 49.45967 | 1.11601 | 29194 ft | 493 kts | 145° |
| 2026-04-16 15:50 | 49.40619 | 1.18184 | 29210 ft | 492 kts | 145° |
| 2026-04-16 15:50 | 49.35272 | 1.24773 | 29208 ft | 492 kts | 145° |
| 2026-04-16 15:51 | 49.29919 | 1.31354 | 29208 ft | 492 kts | 146° |
| 2026-04-16 15:51 | 49.24582 | 1.37895 | 29195 ft | 492 kts | 145° |
| 2026-04-16 15:52 | 49.19221 | 1.44443 | 29217 ft | 492 kts | 145° |
| 2026-04-16 15:52 | 49.13860 | 1.50957 | 29221 ft | 492 kts | 146° |
| 2026-04-16 15:53 | 49.08530 | 1.57417 | 29218 ft | 492 kts | 145° |
| 2026-04-16 15:53 | 49.03165 | 1.63912 | 29204 ft | 492 kts | 145° |
| 2026-04-16 15:54 | 48.97800 | 1.70398 | 29210 ft | 492 kts | 145° |
| 2026-04-16 15:54 | 48.92419 | 1.76866 | 29212 ft | 492 kts | 145° |
| 2026-04-16 15:55 | 48.87025 | 1.83331 | 29218 ft | 493 kts | 145° |
| 2026-04-16 15:55 | 48.81635 | 1.89776 | 29232 ft | 493 kts | 145° |
| 2026-04-16 15:56 | 48.76235 | 1.96222 | 29232 ft | 493 kts | 145° |
| 2026-04-16 15:56 | 48.70837 | 2.02653 | 29234 ft | 494 kts | 145° |
| 2026-04-16 15:57 | 48.65468 | 2.09027 | 29236 ft | 494 kts | 146° |
| 2026-04-16 15:57 | 48.60053 | 2.15428 | 29228 ft | 494 kts | 145° |
| 2026-04-16 15:58 | 48.54848 | 2.22232 | 29229 ft | 498 kts | 137° |
| 2026-04-16 15:58 | 48.50786 | 2.28411 | 29222 ft | 498 kts | 137° |
| 2026-04-16 15:59 | 48.43451 | 2.39515 | 29225 ft | 498 kts | 137° |
| 2026-04-16 15:59 | 48.38557 | 2.46914 | 29211 ft | 498 kts | 137° |
| 2026-04-16 16:00 | 48.33672 | 2.54276 | 29218 ft | 498 kts | 137° |
| 2026-04-16 16:00 | 48.28618 | 2.61348 | 29220 ft | 494 kts | 146° |
| 2026-04-16 16:01 | 48.22675 | 2.66352 | 29226 ft | 488 kts | 159° |
| 2026-04-16 16:01 | 48.16555 | 2.70842 | 29211 ft | 490 kts | 155° |
| 2026-04-16 16:02 | 48.10590 | 2.75788 | 29235 ft | 491 kts | 153° |
| 2026-04-16 16:02 | 48.04527 | 2.80269 | 29240 ft | 488 kts | 159° |
| 2026-04-16 16:03 | 47.98292 | 2.84268 | 29231 ft | 487 kts | 160° |
| 2026-04-16 16:03 | 47.92035 | 2.88165 | 29230 ft | 487 kts | 160° |
| 2026-04-16 16:04 | 47.85788 | 2.92075 | 29228 ft | 487 kts | 160° |
| 2026-04-16 16:04 | 47.79543 | 2.96020 | 29233 ft | 487 kts | 160° |
| 2026-04-16 16:05 | 47.73300 | 2.99963 | 29207 ft | 488 kts | 160° |
| 2026-04-16 16:05 | 47.67049 | 3.03902 | 29215 ft | 488 kts | 160° |
| 2026-04-16 16:06 | 47.60783 | 3.07841 | 29217 ft | 488 kts | 160° |
| 2026-04-16 16:06 | 47.54525 | 3.11750 | 29212 ft | 488 kts | 160° |
| 2026-04-16 16:07 | 47.48291 | 3.15623 | 29214 ft | 489 kts | 160° |
| 2026-04-16 16:07 | 47.42030 | 3.19515 | 29215 ft | 489 kts | 160° |
| 2026-04-16 16:08 | 47.35755 | 3.23413 | 29215 ft | 489 kts | 160° |
| 2026-04-16 16:08 | 47.29484 | 3.27293 | 29205 ft | 489 kts | 160° |
| 2026-04-16 16:09 | 47.23212 | 3.31163 | 29216 ft | 489 kts | 159° |
| 2026-04-16 16:09 | 47.16934 | 3.35020 | 29213 ft | 489 kts | 160° |
| 2026-04-16 16:10 | 47.10647 | 3.38869 | 29219 ft | 490 kts | 159° |
| 2026-04-16 16:10 | 47.04358 | 3.42725 | 29222 ft | 490 kts | 159° |
| 2026-04-16 16:11 | 46.98097 | 3.46547 | 29222 ft | 490 kts | 159° |
| 2026-04-16 16:11 | 46.91795 | 3.50379 | 29223 ft | 490 kts | 159° |
| 2026-04-16 16:12 | 46.85488 | 3.54211 | 29210 ft | 490 kts | 159° |
| 2026-04-16 16:12 | 46.79187 | 3.58031 | 29211 ft | 490 kts | 159° |
| 2026-04-16 16:13 | 46.76026 | 3.59940 | 29091 ft | 491 kts | 159° |
| 2026-04-16 16:13 | 46.72868 | 3.61845 | 28758 ft | 491 kts | 159° |
| 2026-04-16 16:13 | 46.69703 | 3.63746 | 28434 ft | 491 kts | 160° |
| 2026-04-16 16:13 | 46.66521 | 3.65577 | 28120 ft | 492 kts | 161° |
| 2026-04-16 16:14 | 46.63321 | 3.67338 | 27809 ft | 492 kts | 161° |
| 2026-04-16 16:14 | 46.60111 | 3.69054 | 27499 ft | 493 kts | 162° |
| 2026-04-16 16:14 | 46.56896 | 3.70758 | 27184 ft | 488 kts | 162° |
| 2026-04-16 16:14 | 46.53752 | 3.72435 | 26881 ft | 475 kts | 161° |
| 2026-04-16 16:15 | 46.50696 | 3.74082 | 26573 ft | 462 kts | 161° |
| 2026-04-16 16:15 | 46.47721 | 3.75699 | 26263 ft | 451 kts | 161° |
| 2026-04-16 16:15 | 46.44854 | 3.77270 | 25975 ft | 440 kts | 161° |
| 2026-04-16 16:15 | 46.42032 | 3.78867 | 25683 ft | 431 kts | 160° |
| 2026-04-16 16:16 | 46.39281 | 3.80468 | 25394 ft | 422 kts | 160° |
| 2026-04-16 16:16 | 46.36586 | 3.82057 | 25108 ft | 414 kts | 160° |
| 2026-04-16 16:16 | 46.33932 | 3.83598 | 24829 ft | 408 kts | 160° |
| 2026-04-16 16:16 | 46.31304 | 3.85062 | 24547 ft | 401 kts | 161° |
| 2026-04-16 16:17 | 46.28709 | 3.86463 | 24262 ft | 395 kts | 162° |
| 2026-04-16 16:17 | 46.26146 | 3.87829 | 23987 ft | 388 kts | 162° |
| 2026-04-16 16:17 | 46.23631 | 3.89167 | 23699 ft | 382 kts | 162° |
| 2026-04-16 16:17 | 46.21158 | 3.90486 | 23373 ft | 376 kts | 162° |
| 2026-04-16 16:18 | 46.18725 | 3.91789 | 23050 ft | 371 kts | 162° |
| 2026-04-16 16:18 | 46.16340 | 3.93172 | 22732 ft | 369 kts | 155° |
| 2026-04-16 16:18 | 46.14149 | 3.95085 | 22420 ft | 368 kts | 144° |
| 2026-04-16 16:18 | 46.12258 | 3.97508 | 22107 ft | 368 kts | 134° |
| 2026-04-16 16:19 | 46.10664 | 4.00437 | 21792 ft | 366 kts | 123° |
| 2026-04-16 16:19 | 46.09473 | 4.03679 | 21472 ft | 365 kts | 112° |
| 2026-04-16 16:19 | 46.08632 | 4.07064 | 21180 ft | 363 kts | 109° |
| 2026-04-16 16:19 | 46.07809 | 4.10503 | 20879 ft | 361 kts | 109° |
| 2026-04-16 16:20 | 46.06987 | 4.13913 | 20579 ft | 360 kts | 109° |
| 2026-04-16 16:20 | 46.06164 | 4.17314 | 20290 ft | 358 kts | 109° |
| 2026-04-16 16:20 | 46.05344 | 4.20687 | 19993 ft | 356 kts | 109° |
| 2026-04-16 16:20 | 46.04526 | 4.24043 | 19705 ft | 354 kts | 109° |
| 2026-04-16 16:21 | 46.03711 | 4.27383 | 19413 ft | 353 kts | 109° |
| 2026-04-16 16:21 | 46.02849 | 4.30678 | 19133 ft | 351 kts | 115° |
| 2026-04-16 16:21 | 46.01643 | 4.33721 | 18853 ft | 349 kts | 126° |
| 2026-04-16 16:21 | 46.00099 | 4.36388 | 18575 ft | 346 kts | 136° |
| 2026-04-16 16:22 | 45.98279 | 4.38611 | 18260 ft | 342 kts | 147° |
| 2026-04-16 16:22 | 45.96304 | 4.40506 | 17944 ft | 340 kts | 148° |
| 2026-04-16 16:22 | 45.94341 | 4.42385 | 17627 ft | 338 kts | 148° |
| 2026-04-16 16:22 | 45.92422 | 4.44228 | 17313 ft | 336 kts | 148° |
| 2026-04-16 16:23 | 45.90479 | 4.46096 | 17009 ft | 334 kts | 148° |
| 2026-04-16 16:23 | 45.88551 | 4.47946 | 16703 ft | 332 kts | 148° |
| 2026-04-16 16:23 | 45.86632 | 4.49782 | 16395 ft | 330 kts | 148° |
| 2026-04-16 16:23 | 45.84721 | 4.51612 | 16092 ft | 329 kts | 147° |
| 2026-04-16 16:24 | 45.82823 | 4.53428 | 15791 ft | 327 kts | 147° |
| 2026-04-16 16:24 | 45.80934 | 4.55233 | 15478 ft | 325 kts | 147° |
| 2026-04-16 16:24 | 45.79055 | 4.57028 | 15155 ft | 324 kts | 147° |
| 2026-04-16 16:24 | 45.77182 | 4.58815 | 14848 ft | 322 kts | 148° |
| 2026-04-16 16:25 | 45.75321 | 4.60586 | 14536 ft | 320 kts | 147° |
| 2026-04-16 16:25 | 45.73472 | 4.62343 | 14234 ft | 318 kts | 148° |
| 2026-04-16 16:25 | 45.71630 | 4.64091 | 13922 ft | 317 kts | 148° |
| 2026-04-16 16:25 | 45.69689 | 4.65532 | 13578 ft | 313 kts | 160° |
| 2026-04-16 16:26 | 45.67668 | 4.66684 | 13230 ft | 312 kts | 159° |
| 2026-04-16 16:26 | 45.65682 | 4.67817 | 12898 ft | 310 kts | 159° |
| 2026-04-16 16:26 | 45.63682 | 4.68959 | 12560 ft | 308 kts | 159° |
| 2026-04-16 16:26 | 45.61693 | 4.70096 | 12229 ft | 306 kts | 160° |
| 2026-04-16 16:27 | 45.59721 | 4.71223 | 11898 ft | 304 kts | 159° |
| 2026-04-16 16:27 | 45.57764 | 4.72339 | 11578 ft | 302 kts | 159° |
| 2026-04-16 16:27 | 45.55819 | 4.73446 | 11257 ft | 300 kts | 160° |
| 2026-04-16 16:27 | 45.53883 | 4.74547 | 10937 ft | 299 kts | 159° |
| 2026-04-16 16:28 | 45.51957 | 4.75643 | 10631 ft | 297 kts | 159° |
| 2026-04-16 16:28 | 45.50044 | 4.76734 | 10312 ft | 295 kts | 159° |
| 2026-04-16 16:28 | 45.48143 | 4.77816 | 9991 ft | 293 kts | 159° |
| 2026-04-16 16:28 | 45.46248 | 4.78893 | 9645 ft | 293 kts | 159° |
| 2026-04-16 16:29 | 45.44358 | 4.79964 | 9310 ft | 292 kts | 159° |
| 2026-04-16 16:29 | 45.42491 | 4.81023 | 8987 ft | 292 kts | 158° |
| 2026-04-16 16:29 | 45.40604 | 4.82088 | 8638 ft | 291 kts | 158° |
| 2026-04-16 16:29 | 45.38726 | 4.83145 | 8306 ft | 289 kts | 158° |
| 2026-04-16 16:30 | 45.36860 | 4.84196 | 7980 ft | 287 kts | 158° |
| 2026-04-16 16:30 | 45.35021 | 4.85234 | 7654 ft | 284 kts | 157° |
| 2026-04-16 16:30 | 45.33188 | 4.86270 | 7329 ft | 282 kts | 157° |
| 2026-04-16 16:30 | 45.31369 | 4.87299 | 7007 ft | 281 kts | 158° |
| 2026-04-16 16:31 | 45.29598 | 4.88422 | 6701 ft | 277 kts | 146° |
| 2026-04-16 16:31 | 45.28201 | 4.90245 | 6375 ft | 271 kts | 122° |
| 2026-04-16 16:31 | 45.27374 | 4.92599 | 6048 ft | 264 kts | 105° |
| 2026-04-16 16:31 | 45.26742 | 4.95046 | 5701 ft | 263 kts | 107° |
| 2026-04-16 16:32 | 45.26109 | 4.97479 | 5385 ft | 262 kts | 107° |
| 2026-04-16 16:32 | 45.25476 | 4.99904 | 5067 ft | 261 kts | 106° |
| 2026-04-16 16:32 | 45.24858 | 5.02264 | 5002 ft | 249 kts | 106° |
| 2026-04-16 16:32 | 45.24266 | 5.04511 | 5001 ft | 237 kts | 106° |
| 2026-04-16 16:33 | 45.23692 | 5.06689 | 5001 ft | 235 kts | 107° |
| 2026-04-16 16:33 | 45.23124 | 5.08860 | 5003 ft | 235 kts | 105° |
| 2026-04-16 16:33 | 45.22563 | 5.11012 | 5008 ft | 235 kts | 106° |
| 2026-04-16 16:33 | 45.22216 | 5.13275 | 5005 ft | 230 kts | 89° |
| 2026-04-16 16:34 | 45.22344 | 5.15469 | 5009 ft | 226 kts | 73° |
| 2026-04-16 16:34 | 45.22766 | 5.17608 | 5008 ft | 225 kts | 71° |
| 2026-04-16 16:34 | 45.23188 | 5.19747 | 5005 ft | 225 kts | 71° |
| 2026-04-16 16:34 | 45.23606 | 5.21894 | 5007 ft | 225 kts | 71° |
| 2026-04-16 16:35 | 45.24023 | 5.24037 | 5008 ft | 225 kts | 71° |
| 2026-04-16 16:35 | 45.24439 | 5.26179 | 5008 ft | 226 kts | 71° |
| 2026-04-16 16:35 | 45.24854 | 5.28331 | 5007 ft | 223 kts | 71° |
| 2026-04-16 16:35 | 45.25246 | 5.30386 | 5027 ft | 208 kts | 71° |
| 2026-04-16 16:36 | 45.25624 | 5.32356 | 5014 ft | 206 kts | 71° |
| 2026-04-16 16:36 | 45.26004 | 5.34310 | 5002 ft | 205 kts | 71° |
| 2026-04-16 16:36 | 45.26388 | 5.36276 | 5009 ft | 207 kts | 71° |
| 2026-04-16 16:36 | 45.26772 | 5.38253 | 5011 ft | 207 kts | 70° |
| 2026-04-16 16:37 | 45.27155 | 5.40227 | 5014 ft | 208 kts | 70° |
| 2026-04-16 16:37 | 45.27540 | 5.42206 | 5007 ft | 208 kts | 72° |
| 2026-04-16 16:37 | 45.27925 | 5.44194 | 5015 ft | 209 kts | 72° |
| 2026-04-16 16:37 | 45.28307 | 5.46192 | 5008 ft | 209 kts | 71° |
| 2026-04-16 16:38 | 45.28688 | 5.48185 | 5010 ft | 209 kts | 72° |
| 2026-04-16 16:38 | 45.29064 | 5.50151 | 5011 ft | 209 kts | 72° |
| 2026-04-16 16:38 | 45.29447 | 5.52145 | 5012 ft | 209 kts | 71° |
| 2026-04-16 16:38 | 45.29836 | 5.54135 | 5011 ft | 208 kts | 68° |
| 2026-04-16 16:39 | 45.30430 | 5.55955 | 5028 ft | 199 kts | 59° |
| 2026-04-16 16:39 | 45.31129 | 5.57636 | 5017 ft | 196 kts | 47° |
| 2026-04-16 16:39 | 45.32205 | 5.58764 | 4993 ft | 189 kts | 23° |
| 2026-04-16 16:39 | 45.33451 | 5.59112 | 4758 ft | 181 kts | 360° |
| 2026-04-16 16:40 | 45.34706 | 5.59059 | 4569 ft | 180 kts | 352° |
| 2026-04-16 16:40 | 45.35787 | 5.58205 | 4375 ft | 185 kts | 313° |
| 2026-04-16 16:40 | 45.36230 | 5.56485 | 4213 ft | 192 kts | 276° |
| 2026-04-16 16:40 | 45.36239 | 5.54607 | 4021 ft | 184 kts | 274° |
| 2026-04-16 16:41 | 45.36236 | 5.52850 | 3861 ft | 174 kts | 273° |
| 2026-04-16 16:41 | 45.36238 | 5.51144 | 3697 ft | 172 kts | 274° |
| 2026-04-16 16:41 | 45.36243 | 5.49469 | 3524 ft | 168 kts | 275° |
| 2026-04-16 16:41 | 45.36246 | 5.47893 | 3281 ft | 154 kts | 275° |
| 2026-04-16 16:42 | 45.36249 | 5.46401 | 3049 ft | 149 kts | 276° |
| 2026-04-16 16:42 | 45.36252 | 5.44955 | 2833 ft | 144 kts | 272° |
| 2026-04-16 16:42 | 45.36257 | 5.43555 | 2621 ft | 140 kts | 274° |
| 2026-04-16 16:42 | 45.36263 | 5.42178 | 2425 ft | 140 kts | 276° |
| 2026-04-16 16:43 | 45.36267 | 5.40769 | 2214 ft | 141 kts | 275° |
| 2026-04-16 16:43 | 45.36265 | 5.39375 | 1991 ft | 142 kts | 277° |
| 2026-04-16 16:43 | 45.36265 | 5.37980 | 1794 ft | 139 kts | 277° |
| 2026-04-16 16:43 | 45.36283 | 5.36599 | 1647 ft | 139 kts | 275° |
| 2026-04-16 16:44 | 45.36278 | 5.35228 | 1430 ft | 137 kts | 276° |
| 2026-04-16 16:44 | 45.36281 | 5.33894 | 1304 ft | 127 kts | 275° |
| 2026-04-16 16:44 | 45.36296 | 5.32953 | 1276 ft | 55 kts | 270° |
| 2026-04-16 16:44 | 45.36298 | 5.32693 | 1275 ft | 35 kts | 271° |
| 2026-04-16 16:45 | 45.36301 | 5.32204 | 1265 ft | 39 kts | 270° |
| 2026-04-16 16:45 | 45.36299 | 5.31814 | 1251 ft | 29 kts | 269° |
| 2026-04-16 16:45 | 45.36234 | 5.31681 | 1246 ft | 18 kts | 185° |
| 2026-04-16 16:45 | 45.36146 | 5.31757 | 1254 ft | 15 kts | 101° |
| 2026-04-16 16:46 | 45.36144 | 5.31863 | 1251 ft | 19 kts | 89° |
| 2026-04-16 16:46 | 45.36144 | 5.32052 | 1257 ft | 19 kts | 89° |
| 2026-04-16 16:46 | 45.36144 | 5.32237 | 1260 ft | 20 kts | 90° |
| 2026-04-16 16:46 | 45.36143 | 5.32480 | 1267 ft | 26 kts | 90° |
| 2026-04-16 16:47 | 45.36143 | 5.32742 | 1272 ft | 27 kts | 90° |
| 2026-04-16 16:47 | 45.36141 | 5.33000 | 1279 ft | 25 kts | 90° |
| 2026-04-16 16:47 | 45.36137 | 5.33181 | 1283 ft | 6 kts | 110° |
| 2026-04-16 16:47 | 45.36119 | 5.33184 | 1283 ft | 3 kts | 195° |
| 2026-04-16 16:48 | 45.36094 | 5.33157 | 1283 ft | 6 kts | 222° |
| 2026-04-16 16:48 | 45.36084 | 5.33141 | 1283 ft | 0 kts | 227° |